CYFB

Details ICAO CYFB (YFB)
Name Iqaluit
Region Canada
Timezone America/Iqaluit (UTC-5.0)
Plans Departing 131
Arriving 142
Stats Elevation 110 ft / 34 m (AMSL)
Location 63.756565° -68.556058°
Runways 1
Magnetic Variation 27.545° W
Sunrise 2017-12-12 14:13:41 UTC / 2017-12-12 09:13:41 Local
Sunset 2017-12-12 18:45:16 UTC / 2017-12-12 13:45:16 Local
Advertisement - Login to hide

Runways

ID Width Length Bearing (true) Bearing (mag) Surface Threshold Offset Overrun Length
17 200 ft / 61 m 8,605 ft / 2,623 m 135.58° 163.13° Asphalt 0 ft / 0 m 210 ft / 64 m
35 200 ft / 61 m 8,605 ft / 2,623 m 315.62° 343.17° Asphalt 0 ft / 0 m 243 ft / 74 m

Map

Weather


0- 5 10 15 20 25 30 35+ Temperature / ° C

Clouds and Precipitation
Forecast for 2017-12-12 12:00 UTC. Updated an hour ago

Ground ~20,000 ft ~40,000 ft Winds

METAR

CYFB 121200Z 31008KT 12SM -SN SCT021 OVC057 M15/M18 A2949 RMK SC3SC5 SLP993

TAF

TAF CYFB 121138Z 1212/1312 31008KT P6SM OVC050 TEMPO 1212/1218 VRB03KT P6SM -SN BKN020 OVC050 FM121800 VRB03KT P6SM BKN050 RMK NXT FCST BY 121800Z

Frequencies

Recorded 122.20 MHz FSS
Unicom 126.70 MHz MULTICOM
Tower 134.55 MHz CNTR
Recorded 126.70 MHz FSS
Unicom 126.90 MHz MULTICOM
Warning: Do not use this data for real-world aviation or navigation. No guarantee of current accuracy is given.